createdAt,value
2017-10-02T00:01:27.256Z,95036.53
2017-10-02T00:03:55.578Z,95026.34
2017-10-02T00:06:23.938Z,95036.84
2017-10-02T00:08:52.298Z,95027.44
2017-10-02T00:11:20.631Z,95038.00
2017-10-02T00:13:48.993Z,95022.83
2017-10-02T00:16:17.319Z,95015.96
2017-10-02T00:18:45.654Z,95001.53
2017-10-02T00:21:14.126Z,95000.30
2017-10-02T00:23:42.467Z,94994.49
2017-10-02T00:26:10.799Z,94988.65
2017-10-02T00:28:39.135Z,94991.12
2017-10-02T00:31:07.478Z,95002.56
2017-10-02T00:33:35.826Z,95001.58
2017-10-02T00:36:04.187Z,95002.37
2017-10-02T00:38:32.528Z,94996.28
2017-10-02T00:41:00.854Z,94984.37
2017-10-02T00:43:29.185Z,94994.75
2017-10-02T00:45:57.531Z,94987.66
2017-10-02T00:48:25.863Z,94989.11
2017-10-02T00:50:54.198Z,94982.16
2017-10-02T00:53:22.530Z,94985.63
2017-10-02T00:55:50.887Z,94978.14
2017-10-02T00:58:19.217Z,94976.20
2017-10-02T01:00:47.558Z,94976.03
2017-10-02T01:03:15.878Z,94971.05
2017-10-02T01:05:44.351Z,94970.48
2017-10-02T01:08:12.690Z,94962.66
2017-10-02T01:10:41.029Z,94970.01
2017-10-02T01:13:09.366Z,94960.19
2017-10-02T01:15:37.706Z,94967.22
2017-10-02T01:18:06.042Z,94961.23
2017-10-02T01:20:34.378Z,94963.25
2017-10-02T01:23:02.706Z,94969.09
2017-10-02T01:25:31.047Z,94968.02
2017-10-02T01:27:59.387Z,94976.25
2017-10-02T01:30:27.720Z,94973.50
2017-10-02T01:32:56.091Z,94967.98
2017-10-02T01:35:24.418Z,94966.17
2017-10-02T01:37:52.755Z,94969.08
2017-10-02T01:40:21.086Z,94968.52
2017-10-02T01:42:49.449Z,94969.55
2017-10-02T01:45:17.819Z,94961.95
2017-10-02T01:47:46.175Z,94953.89
2017-10-02T01:50:14.534Z,94949.21
2017-10-02T01:52:42.870Z,94941.48
2017-10-02T01:55:11.199Z,94934.20
2017-10-02T01:57:39.531Z,94919.73
2017-10-02T02:00:07.866Z,94902.17
2017-10-02T02:02:36.198Z,94905.40
2017-10-02T02:05:04.567Z,94920.21
2017-10-02T02:07:32.898Z,94908.30
2017-10-02T02:10:01.254Z,94899.10
2017-10-02T02:12:29.592Z,94899.71
2017-10-02T02:14:57.922Z,94880.55
2017-10-02T02:17:26.254Z,94867.64
2017-10-02T02:19:54.590Z,94855.23
2017-10-02T02:22:22.927Z,94856.97
2017-10-02T02:24:51.270Z,94862.45
2017-10-02T02:27:19.606Z,94853.78
2017-10-02T02:29:48.072Z,94847.78
2017-10-02T02:32:16.425Z,94840.55
2017-10-02T02:34:44.752Z,94851.61
2017-10-02T02:37:13.088Z,94843.36
2017-10-02T02:39:41.414Z,94836.89
2017-10-02T02:42:09.751Z,94832.52
2017-10-02T02:44:38.082Z,94822.57
2017-10-02T02:47:06.443Z,94826.84
2017-10-02T02:49:34.773Z,94834.85
2017-10-02T02:52:03.106Z,94820.19
2017-10-02T02:54:31.442Z,94813.85
2017-10-02T02:56:59.779Z,94815.48
2017-10-02T02:59:28.107Z,94819.48
2017-10-02T03:01:56.479Z,94824.66
2017-10-02T03:04:24.810Z,94818.55
2017-10-02T03:06:53.142Z,94828.75
2017-10-02T03:09:21.509Z,94818.05
2017-10-02T03:11:49.849Z,94823.77
2017-10-02T03:14:18.186Z,94827.69
2017-10-02T03:16:46.520Z,94818.73
2017-10-02T03:19:14.855Z,94826.97
2017-10-02T03:21:43.187Z,94827.14
2017-10-02T03:24:11.699Z,94812.61
2017-10-02T03:26:40.040Z,94822.86
2017-10-02T03:29:08.370Z,94815.81
2017-10-02T03:31:36.706Z,94815.81
2017-10-02T03:34:05.035Z,94808.22
2017-10-02T03:36:33.500Z,94810.09
2017-10-02T03:39:01.839Z,94812.20
2017-10-02T03:41:30.165Z,94816.74
2017-10-02T03:43:58.498Z,94808.33
2017-10-02T03:46:26.826Z,94808.29
2017-10-02T03:48:55.158Z,94809.17
2017-10-02T03:51:23.490Z,94809.28
2017-10-02T03:53:51.820Z,94802.33
2017-10-02T03:56:20.626Z,94815.88
2017-10-02T03:58:48.967Z,94810.48
2017-10-02T04:01:17.294Z,94804.30
2017-10-02T04:03:45.626Z,94817.33
2017-10-02T04:06:13.995Z,94817.06
2017-10-02T04:08:42.325Z,94803.09
2017-10-02T04:11:10.663Z,94787.64
2017-10-02T04:13:38.997Z,94816.42
2017-10-02T04:16:07.340Z,94798.23
2017-10-02T04:18:35.702Z,94792.11
2017-10-02T04:21:04.046Z,94791.77
2017-10-02T04:23:32.386Z,94793.41
2017-10-02T04:26:00.745Z,94796.78
2017-10-02T04:28:29.071Z,94789.03
2017-10-02T04:30:57.405Z,94790.89
2017-10-02T04:33:25.737Z,94775.84
2017-10-02T04:35:54.067Z,94777.92
2017-10-02T04:38:22.402Z,94787.41
2017-10-02T04:40:50.730Z,94780.98
2017-10-02T04:43:19.103Z,94784.78
2017-10-02T04:45:47.434Z,94779.56
2017-10-02T04:48:15.770Z,94785.82
2017-10-02T04:50:44.110Z,94795.47
2017-10-02T04:53:12.521Z,94784.45
2017-10-02T04:55:40.906Z,94788.53
2017-10-02T04:58:09.247Z,94783.89
2017-10-02T05:00:37.586Z,94784.89
2017-10-02T05:03:05.940Z,94778.69
2017-10-02T05:05:34.276Z,94775.06
2017-10-02T05:08:02.811Z,94769.38
2017-10-02T05:10:31.146Z,94767.31
2017-10-02T05:12:59.470Z,94774.25
2017-10-02T05:15:27.815Z,94771.90
2017-10-02T05:17:56.154Z,94768.54
2017-10-02T05:20:24.486Z,94760.16
2017-10-02T05:22:52.834Z,94740.13
2017-10-02T05:25:21.166Z,94745.19
2017-10-02T05:27:49.544Z,94741.87
2017-10-02T05:30:17.877Z,94745.48
2017-10-02T05:32:46.241Z,94752.76
2017-10-02T05:35:14.726Z,94753.80
2017-10-02T05:37:43.061Z,94760.64
2017-10-02T05:40:11.395Z,94755.20
2017-10-02T05:42:39.775Z,94748.59
2017-10-02T05:45:10.823Z,94738.56
2017-10-02T05:47:39.155Z,94736.98
2017-10-02T05:50:07.487Z,94742.71
2017-10-02T05:52:35.865Z,94746.39
2017-10-02T05:55:04.194Z,94740.08
2017-10-02T05:57:32.570Z,94731.61
2017-10-02T06:00:00.902Z,94729.67
2017-10-02T06:02:29.234Z,94721.82
2017-10-02T06:04:57.707Z,94725.94
2017-10-02T06:07:26.038Z,94724.38
2017-10-02T06:09:54.376Z,94722.45
2017-10-02T06:12:22.738Z,94715.66
2017-10-02T06:14:51.070Z,94715.88
2017-10-02T06:17:19.402Z,94716.89
2017-10-02T06:19:47.763Z,94716.33
2017-10-02T06:22:16.102Z,94715.48
2017-10-02T06:24:44.498Z,94711.31
2017-10-02T06:27:12.830Z,94707.92
2017-10-02T06:29:41.169Z,94712.59
2017-10-02T06:32:09.523Z,94712.52
2017-10-02T06:34:37.890Z,94718.55
2017-10-02T06:37:06.214Z,94715.86
2017-10-02T06:39:34.577Z,94719.25
2017-10-02T06:42:02.910Z,94715.91
2017-10-02T06:44:31.274Z,94710.81
2017-10-02T06:46:59.646Z,94707.20
2017-10-02T06:49:28.117Z,94700.34
2017-10-02T06:51:56.450Z,94701.48
2017-10-02T06:54:24.782Z,94706.05
2017-10-02T06:56:53.145Z,94699.21
2017-10-02T06:59:21.486Z,94694.59
2017-10-02T07:01:49.847Z,94692.92
2017-10-02T07:04:18.198Z,94683.83
2017-10-02T07:06:46.539Z,94697.86
2017-10-02T07:09:14.893Z,94693.41
2017-10-02T07:11:43.258Z,94706.89
2017-10-02T07:14:11.629Z,94704.07
2017-10-02T07:16:39.962Z,94707.31
2017-10-02T07:19:08.304Z,94705.95
2017-10-02T07:21:36.642Z,94711.33
2017-10-02T07:24:04.974Z,94712.79
2017-10-02T07:26:33.334Z,94707.75
2017-10-02T07:29:01.683Z,94715.69
2017-10-02T07:31:30.095Z,94707.67
2017-10-02T07:33:58.427Z,94711.70
2017-10-02T07:36:26.770Z,94709.18
2017-10-02T07:38:55.102Z,94710.28
2017-10-02T07:41:23.562Z,94705.86
2017-10-02T07:43:51.898Z,94707.64
2017-10-02T07:46:20.229Z,94702.36
2017-10-02T07:48:48.595Z,94701.05
2017-10-02T07:51:16.922Z,94694.61
2017-10-02T07:53:45.289Z,94705.77
2017-10-02T07:56:13.656Z,94698.84
2017-10-02T07:58:41.986Z,94696.61
2017-10-02T08:01:10.364Z,94688.38
2017-10-02T08:03:38.691Z,94692.59
2017-10-02T08:06:07.020Z,94691.08
2017-10-02T08:08:35.383Z,94681.73
2017-10-02T08:11:03.717Z,94678.47
2017-10-02T08:13:32.189Z,94687.34
2017-10-02T08:16:00.515Z,94701.30
2017-10-02T08:18:28.851Z,94699.59
2017-10-02T08:20:57.194Z,94692.12
2017-10-02T08:23:25.559Z,94700.27
2017-10-02T08:25:53.926Z,94696.00
2017-10-02T08:28:22.263Z,94692.17
2017-10-02T08:30:50.622Z,94698.25
2017-10-02T08:33:18.945Z,94694.60
2017-10-02T08:35:47.310Z,94699.11
2017-10-02T08:38:15.646Z,94698.11
2017-10-02T08:40:44.015Z,94701.66
2017-10-02T08:43:12.347Z,94698.13
2017-10-02T08:45:40.707Z,94696.50
2017-10-02T08:48:09.046Z,94692.88
2017-10-02T08:50:37.422Z,94694.07
2017-10-02T08:53:05.752Z,94696.88
2017-10-02T08:55:34.145Z,94694.55
2017-10-02T08:58:02.792Z,94689.41
2017-10-02T09:00:31.129Z,94692.20
2017-10-02T09:02:59.453Z,94696.80
2017-10-02T09:05:27.782Z,94698.30
2017-10-02T09:07:56.143Z,94687.31
2017-10-02T09:10:24.475Z,94695.69
2017-10-02T09:12:52.938Z,94699.64
2017-10-02T09:15:21.275Z,94691.56
2017-10-02T09:17:49.606Z,94696.33
2017-10-02T09:20:17.940Z,94695.19
2017-10-02T09:22:46.274Z,94696.81
2017-10-02T09:25:14.634Z,94688.66
2017-10-02T09:27:42.968Z,94697.47
2017-10-02T09:30:11.429Z,94710.30
2017-10-02T09:32:39.777Z,94700.71
2017-10-02T09:35:08.110Z,94710.23
2017-10-02T09:37:36.478Z,94700.80
2017-10-02T09:40:04.807Z,94708.89
2017-10-02T09:42:33.275Z,94713.02
2017-10-02T09:45:01.798Z,94708.74
2017-10-02T09:47:30.135Z,94703.03
2017-10-02T09:49:58.494Z,94708.22
2017-10-02T09:52:26.837Z,94692.56
2017-10-02T09:54:55.213Z,94678.27
2017-10-02T09:57:23.546Z,94687.19
2017-10-02T09:59:51.877Z,94693.42
2017-10-02T10:02:20.354Z,94696.17
2017-10-02T10:04:48.678Z,94696.89
2017-10-02T10:07:17.031Z,94701.55
2017-10-02T10:09:45.361Z,94697.48
2017-10-02T10:12:13.702Z,94700.97
2017-10-02T10:14:42.066Z,94704.94
2017-10-02T10:17:10.394Z,94714.66
2017-10-02T10:19:38.723Z,94713.80
2017-10-02T10:22:07.053Z,94712.92
2017-10-02T10:24:35.694Z,94709.09
2017-10-02T10:27:04.103Z,94687.84
2017-10-02T10:29:32.430Z,94691.61
2017-10-02T10:32:00.779Z,94698.53
2017-10-02T10:34:29.097Z,94682.57
2017-10-02T10:36:57.481Z,94679.94
2017-10-02T10:39:25.813Z,94676.66
2017-10-02T10:41:54.147Z,94670.93
2017-10-02T10:44:22.953Z,94667.50
2017-10-02T10:46:51.319Z,94657.02
2017-10-02T10:49:19.677Z,94653.55
2017-10-02T10:51:48.049Z,94646.88
2017-10-02T10:54:16.399Z,94634.13
2017-10-02T10:56:44.764Z,94629.67
2017-10-02T10:59:13.125Z,94611.87
2017-10-02T11:01:41.502Z,94606.06
2017-10-02T11:04:09.883Z,94603.67
2017-10-02T11:06:38.621Z,94601.17
2017-10-02T11:09:06.962Z,94602.27
2017-10-02T11:11:35.419Z,94602.13
2017-10-02T11:14:03.757Z,94614.56
2017-10-02T11:16:32.096Z,94624.80
2017-10-02T11:19:00.434Z,94627.55
2017-10-02T11:21:28.798Z,94624.83
2017-10-02T11:23:57.179Z,94621.31
2017-10-02T11:26:25.530Z,94636.61
2017-10-02T11:28:53.897Z,94656.92
2017-10-02T11:31:22.241Z,94670.30
2017-10-02T11:33:50.686Z,94661.04
2017-10-02T11:36:19.018Z,94671.27
2017-10-02T11:38:47.443Z,94667.23
2017-10-02T11:41:15.770Z,94658.08
2017-10-02T11:43:44.102Z,94655.63
2017-10-02T11:46:12.443Z,94642.37
2017-10-02T11:48:40.802Z,94658.07
2017-10-02T11:51:09.138Z,94674.33
2017-10-02T11:53:37.510Z,94681.75
2017-10-02T11:56:05.867Z,94678.63
2017-10-02T11:58:34.203Z,94698.12
2017-10-02T12:01:02.571Z,94695.14
2017-10-02T12:03:30.930Z,94683.78
2017-10-02T12:05:59.293Z,94680.44
2017-10-02T12:08:27.619Z,94681.87
2017-10-02T12:10:55.977Z,94677.91
2017-10-02T12:13:24.306Z,94678.63
2017-10-02T12:15:52.665Z,94686.38
2017-10-02T12:18:21.061Z,94689.96
2017-10-02T12:20:49.738Z,94677.25
2017-10-02T12:23:18.067Z,94681.03
2017-10-02T12:25:46.395Z,94677.67
2017-10-02T12:28:14.854Z,94686.22
2017-10-02T12:30:43.186Z,94672.78
2017-10-02T12:33:11.517Z,94665.34
2017-10-02T12:35:39.850Z,94662.28
2017-10-02T12:38:08.186Z,94674.17
2017-10-02T12:40:36.561Z,94675.55
2017-10-02T12:43:04.893Z,94674.30
2017-10-02T12:45:33.269Z,94673.81
2017-10-02T12:48:01.594Z,94668.77
2017-10-02T12:50:29.927Z,94670.25
2017-10-02T12:52:58.262Z,94657.80
2017-10-02T12:55:26.591Z,94666.77
2017-10-02T12:57:54.924Z,94661.08
2017-10-02T13:00:23.255Z,94656.17
2017-10-02T13:02:51.623Z,94646.86
2017-10-02T13:05:19.955Z,94649.89
2017-10-02T13:07:48.318Z,94652.46
2017-10-02T13:10:16.653Z,94655.52
2017-10-02T13:12:44.994Z,94657.01
2017-10-02T13:15:13.570Z,94656.52
2017-10-02T13:17:41.938Z,94655.33
2017-10-02T13:20:10.406Z,94657.58
2017-10-02T13:22:38.751Z,94655.45
2017-10-02T13:25:07.091Z,94664.85
2017-10-02T13:27:35.498Z,94656.76
2017-10-02T13:30:03.840Z,94653.22
2017-10-02T13:32:32.370Z,94651.59
2017-10-02T13:35:00.718Z,94651.82
2017-10-02T13:37:29.085Z,94641.56
2017-10-02T13:39:57.453Z,94638.55
2017-10-02T13:42:25.802Z,94635.50
2017-10-02T13:44:54.166Z,94640.00
2017-10-02T13:47:22.510Z,94638.80
2017-10-02T13:49:50.985Z,94627.91
2017-10-02T13:52:19.326Z,94625.52
2017-10-02T13:54:47.662Z,94617.33
2017-10-02T13:57:16.034Z,94616.48
2017-10-02T13:59:44.378Z,94617.36
2017-10-02T14:02:12.714Z,94620.37
2017-10-02T14:04:41.054Z,94619.73
2017-10-02T14:07:09.390Z,94624.81
2017-10-02T14:09:37.762Z,94619.82
2017-10-02T14:12:06.108Z,94623.45
2017-10-02T14:14:34.538Z,94622.48
2017-10-02T14:17:02.880Z,94622.89
2017-10-02T14:19:31.242Z,94623.40
2017-10-02T14:21:59.583Z,94614.82
2017-10-02T14:24:27.931Z,94606.02
2017-10-02T14:26:57.126Z,94611.27
2017-10-02T14:29:25.462Z,94609.36
2017-10-02T14:31:53.935Z,94606.34
2017-10-02T14:34:22.274Z,94601.49
2017-10-02T14:36:50.619Z,94607.03
2017-10-02T14:39:18.958Z,94609.80
2017-10-02T14:41:47.298Z,94618.14
2017-10-02T14:44:16.445Z,94616.27
2017-10-02T14:46:44.784Z,94635.47
2017-10-02T14:49:13.163Z,94632.08
2017-10-02T14:51:41.507Z,94633.64
2017-10-02T14:54:09.846Z,94636.27
2017-10-02T14:56:38.199Z,94648.13
2017-10-02T14:59:06.534Z,94630.02
2017-10-02T15:01:35.006Z,94626.97
2017-10-02T15:04:03.354Z,94622.49
2017-10-02T15:06:31.694Z,94624.05
2017-10-02T15:09:00.067Z,94620.86
2017-10-02T15:11:28.408Z,94618.59
2017-10-02T15:13:56.877Z,94613.72
2017-10-02T15:16:25.217Z,94618.19
2017-10-02T15:18:53.554Z,94621.52
2017-10-02T15:21:21.896Z,94624.20
2017-10-02T15:23:50.225Z,94619.95
2017-10-02T15:26:18.607Z,94614.18
2017-10-02T15:28:46.956Z,94621.04
2017-10-02T15:31:15.957Z,94620.44
2017-10-02T15:33:44.286Z,94626.51
2017-10-02T15:36:12.659Z,94624.40
2017-10-02T15:38:40.990Z,94624.61
2017-10-02T15:41:09.577Z,94627.09
2017-10-02T15:43:37.946Z,94626.09
2017-10-02T15:46:06.295Z,94611.39
2017-10-02T15:48:35.374Z,94622.06
2017-10-02T15:51:06.942Z,94613.66
2017-10-02T15:53:49.261Z,94611.98
2017-10-02T15:56:18.974Z,94609.17
2017-10-02T15:58:47.732Z,94614.31
2017-10-02T16:01:16.520Z,94615.45
2017-10-02T16:03:46.347Z,94620.09
2017-10-02T16:06:14.908Z,94621.78
2017-10-02T16:08:43.250Z,94616.92
2017-10-02T16:11:12.524Z,94609.34
2017-10-02T16:13:41.769Z,94615.17
2017-10-02T16:16:11.062Z,94622.16
2017-10-02T16:18:41.085Z,94636.67
2017-10-02T16:21:11.175Z,94632.69
2017-10-02T16:23:39.914Z,94645.73
2017-10-02T16:26:08.704Z,94628.61
2017-10-02T16:28:37.163Z,94649.63
2017-10-02T16:31:05.782Z,94655.20
2017-10-02T16:33:35.031Z,94652.44
2017-10-02T16:36:03.435Z,94648.75
2017-10-02T16:38:31.778Z,94657.70
2017-10-02T16:41:00.164Z,94650.46
2017-10-02T16:43:28.494Z,94648.67
2017-10-02T16:45:56.830Z,94649.95
2017-10-02T16:48:25.165Z,94646.48
2017-10-02T16:50:53.776Z,94641.52
2017-10-02T16:53:22.158Z,94644.32
2017-10-02T16:55:50.498Z,94651.44
2017-10-02T16:58:18.863Z,94643.63
2017-10-02T17:00:47.211Z,94641.27
2017-10-02T17:03:15.547Z,94640.00
2017-10-02T17:05:44.030Z,94646.59
2017-10-02T17:08:12.413Z,94643.05
2017-10-02T17:10:40.897Z,94650.57
2017-10-02T17:13:09.241Z,94636.86
2017-10-02T17:15:37.618Z,94652.25
2017-10-02T17:18:05.971Z,94655.27
2017-10-02T17:20:37.543Z,94657.31
2017-10-02T17:23:05.879Z,94659.02
2017-10-02T17:25:34.242Z,94656.63
2017-10-02T17:28:02.601Z,94652.59
2017-10-02T17:30:30.941Z,94648.73
2017-10-02T17:32:59.279Z,94652.84
2017-10-02T17:35:27.832Z,94650.85
2017-10-02T17:37:56.220Z,94643.41
2017-10-02T17:40:24.587Z,94647.70
2017-10-02T17:42:55.018Z,94662.94
2017-10-02T17:45:23.436Z,94652.84
2017-10-02T17:47:51.771Z,94661.98
2017-10-02T17:50:20.115Z,94666.63
2017-10-02T17:52:48.765Z,94662.85
2017-10-02T17:55:17.191Z,94665.52
2017-10-02T17:57:46.249Z,94663.52
2017-10-02T18:00:15.470Z,94658.49
2017-10-02T18:02:44.366Z,94656.17
2017-10-02T18:05:12.798Z,94649.83
2017-10-02T18:07:41.441Z,94650.11
2017-10-02T18:10:09.991Z,94661.78
2017-10-02T18:12:38.435Z,94658.45
2017-10-02T18:15:07.104Z,94657.72
2017-10-02T18:17:35.482Z,94643.95
2017-10-02T18:20:03.988Z,94648.44
2017-10-02T18:22:32.950Z,94649.58
2017-10-02T18:25:01.812Z,94650.16
2017-10-02T18:27:30.218Z,94639.57
2017-10-02T18:29:58.581Z,94646.44
2017-10-02T18:32:26.986Z,94651.05
2017-10-02T18:34:55.551Z,94652.56
2017-10-02T18:37:23.943Z,94665.67
2017-10-02T18:39:52.288Z,94659.55
2017-10-02T18:42:20.667Z,94650.28
2017-10-02T18:44:49.069Z,94652.98
2017-10-02T18:47:17.523Z,94653.69
2017-10-02T18:49:47.334Z,94645.22
2017-10-02T18:52:15.734Z,94655.84
2017-10-02T18:54:44.074Z,94633.28
2017-10-02T18:57:12.466Z,94629.08
2017-10-02T18:59:40.830Z,94644.56
2017-10-02T19:02:09.209Z,94641.78
2017-10-02T19:04:37.580Z,94640.91
2017-10-02T19:07:05.988Z,94637.52
2017-10-02T19:09:34.364Z,94640.60
2017-10-02T19:12:02.854Z,94638.42
2017-10-02T19:14:31.912Z,94632.16
2017-10-02T19:17:00.274Z,94636.20
2017-10-02T19:19:28.632Z,94637.86
2017-10-02T19:21:57.208Z,94639.11
2017-10-02T19:24:25.571Z,94641.04
2017-10-02T19:26:53.952Z,94624.59
2017-10-02T19:29:22.298Z,94644.78
2017-10-02T19:32:07.715Z,94638.84
2017-10-02T19:34:41.037Z,94644.91
2017-10-02T19:37:31.146Z,94637.53
2017-10-02T19:40:03.394Z,94637.57
2017-10-02T19:42:45.646Z,94644.17
2017-10-02T19:45:18.858Z,94639.97
2017-10-02T19:48:25.853Z,94632.17
2017-10-02T19:51:00.067Z,94637.32
2017-10-02T19:53:30.916Z,94639.99
2017-10-02T19:56:07.990Z,94635.35
2017-10-02T19:58:37.367Z,94636.02
2017-10-02T20:01:05.762Z,94631.84
2017-10-02T20:03:34.124Z,94637.18
2017-10-02T20:06:02.543Z,94627.59
2017-10-02T20:08:30.912Z,94621.25
2017-10-02T20:10:59.304Z,94631.13
2017-10-02T20:13:27.835Z,94631.52
2017-10-02T20:16:02.731Z,94619.19
2017-10-02T20:18:31.110Z,94618.56
2017-10-02T20:20:59.497Z,94614.74
2017-10-02T20:23:27.942Z,94614.29
2017-10-02T20:25:56.353Z,94613.66
2017-10-02T20:28:24.795Z,94607.73
2017-10-02T20:30:53.175Z,94613.47
2017-10-02T20:33:21.588Z,94615.32
2017-10-02T20:35:49.959Z,94611.81
2017-10-02T20:38:18.343Z,94611.85
2017-10-02T20:40:46.765Z,94605.66
2017-10-02T20:43:15.133Z,94614.05
2017-10-02T20:45:43.502Z,94618.77
2017-10-02T20:48:11.903Z,94614.52
2017-10-02T20:50:40.293Z,94603.94
2017-10-02T20:53:08.715Z,94613.37
2017-10-02T20:55:37.250Z,94602.43
2017-10-02T20:58:05.650Z,94593.56
2017-10-02T21:00:34.011Z,94611.52
2017-10-02T21:03:02.456Z,94614.83
2017-10-02T21:05:30.818Z,94625.34
2017-10-02T21:07:59.312Z,94624.09
2017-10-02T21:10:27.695Z,94615.44
2017-10-02T21:12:56.061Z,94618.14
2017-10-02T21:15:24.423Z,94614.41
2017-10-02T21:17:52.815Z,94623.12
2017-10-02T21:20:21.187Z,94625.23
2017-10-02T21:22:49.593Z,94608.92
2017-10-02T21:25:17.946Z,94619.48
2017-10-02T21:27:46.334Z,94607.09
2017-10-02T21:30:14.739Z,94611.70
2017-10-02T21:32:43.110Z,94613.55
2017-10-02T21:35:11.471Z,94610.28
2017-10-02T21:37:39.840Z,94607.42
2017-10-02T21:40:08.197Z,94603.53
2017-10-02T21:42:36.603Z,94614.16
2017-10-02T21:45:04.982Z,94622.20
2017-10-02T21:47:33.389Z,94623.41
2017-10-02T21:50:01.855Z,94611.49
2017-10-02T21:52:30.235Z,94608.73
2017-10-02T21:54:58.622Z,94612.20
2017-10-02T21:57:27.121Z,94605.06
2017-10-02T21:59:56.165Z,94598.30
2017-10-02T22:02:24.519Z,94614.99
2017-10-02T22:04:52.924Z,94607.88
2017-10-02T22:07:21.296Z,94603.37
2017-10-02T22:09:49.776Z,94608.38
2017-10-02T22:12:18.245Z,94608.31
2017-10-02T22:14:46.607Z,94603.31
2017-10-02T22:17:14.967Z,94601.27
2017-10-02T22:19:43.334Z,94595.66
2017-10-02T22:22:11.841Z,94596.09
2017-10-02T22:24:40.201Z,94600.38
2017-10-02T22:27:08.586Z,94595.98
2017-10-02T22:29:36.955Z,94609.47
2017-10-02T22:32:05.339Z,94600.88
2017-10-02T22:34:33.831Z,94588.50
2017-10-02T22:37:02.198Z,94600.92
2017-10-02T22:39:30.559Z,94585.82
2017-10-02T22:41:58.919Z,94588.81
2017-10-02T22:44:27.413Z,94607.66
2017-10-02T22:46:55.768Z,94604.45
2017-10-02T22:49:24.149Z,94608.70
2017-10-02T22:51:52.504Z,94601.42
2017-10-02T22:54:20.906Z,94607.14
2017-10-02T22:56:49.302Z,94607.34
2017-10-02T22:59:17.669Z,94607.24
2017-10-02T23:01:46.030Z,94612.61
2017-10-02T23:04:14.413Z,94620.44
2017-10-02T23:06:42.771Z,94619.66
2017-10-02T23:09:11.289Z,94626.70
2017-10-02T23:11:39.642Z,94623.58
2017-10-02T23:14:08.007Z,94628.84
2017-10-02T23:16:36.357Z,94641.53
2017-10-02T23:19:04.704Z,94639.27
2017-10-02T23:21:33.080Z,94637.88
2017-10-02T23:24:01.435Z,94638.09
2017-10-02T23:26:29.820Z,94641.59
2017-10-02T23:28:58.180Z,94632.78
2017-10-02T23:31:26.568Z,94631.84
2017-10-02T23:33:54.927Z,94626.80
2017-10-02T23:36:23.285Z,94627.37
2017-10-02T23:38:51.655Z,94634.20
2017-10-02T23:41:20.011Z,94632.70
2017-10-02T23:43:48.499Z,94622.17
2017-10-02T23:46:16.851Z,94622.22
2017-10-02T23:48:45.203Z,94614.83
2017-10-02T23:51:13.567Z,94612.73
2017-10-02T23:53:41.969Z,94609.70
2017-10-02T23:56:10.316Z,94613.30
2017-10-02T23:58:38.700Z,94605.11
